sensor_id;sensor_type;location;lat;lon;timestamp;pressure;altitude;pressure_sealevel;temperature;humidity
32456;BME280;18912;43.270;27.942;2022-12-07T00:01:33;98249.22;;;14.85;70.38
32456;BME280;18912;43.270;27.942;2022-12-07T00:04:01;98258.56;;;14.77;71.52
32456;BME280;18912;43.270;27.942;2022-12-07T00:06:31;98255.31;;;14.98;70.10
32456;BME280;18912;43.270;27.942;2022-12-07T00:08:57;98254.09;;;14.65;70.61
32456;BME280;18912;43.270;27.942;2022-12-07T00:11:23;98253.50;;;15.34;68.82
32456;BME280;18912;43.270;27.942;2022-12-07T00:13:54;98254.47;;;15.39;67.70
32456;BME280;18912;43.270;27.942;2022-12-07T00:16:22;98261.38;;;15.01;68.77
32456;BME280;18912;43.270;27.942;2022-12-07T00:18:48;98256.75;;;15.13;68.97
32456;BME280;18912;43.270;27.942;2022-12-07T00:21:15;98260.31;;;15.54;67.65
32456;BME280;18912;43.270;27.942;2022-12-07T00:23:43;98258.34;;;15.32;68.29
32456;BME280;18912;43.270;27.942;2022-12-07T00:28:52;98275.59;;;14.84;69.73
32456;BME280;18912;43.270;27.942;2022-12-07T00:31:20;98270.81;;;14.98;69.31
32456;BME280;18912;43.270;27.942;2022-12-07T00:33:46;98276.69;;;14.65;70.45
32456;BME280;18912;43.270;27.942;2022-12-07T00:36:15;98272.56;;;15.34;67.64
32456;BME280;18912;43.270;27.942;2022-12-07T00:38:41;98272.31;;;15.35;67.68
32456;BME280;18912;43.270;27.942;2022-12-07T00:41:13;98265.38;;;14.98;68.84
32456;BME280;18912;43.270;27.942;2022-12-07T00:43:40;98256.28;;;14.74;70.22
32456;BME280;18912;43.270;27.942;2022-12-07T00:46:07;98261.84;;;15.09;68.76
32456;BME280;18912;43.270;27.942;2022-12-07T00:48:32;98253.09;;;15.07;68.76
32456;BME280;18912;43.270;27.942;2022-12-07T00:50:58;98261.75;;;14.86;69.16
32456;BME280;18912;43.270;27.942;2022-12-07T00:53:24;98259.44;;;15.01;69.09
32456;BME280;18912;43.270;27.942;2022-12-07T00:55:50;98252.06;;;15.31;67.49
32456;BME280;18912;43.270;27.942;2022-12-07T00:58:15;98253.84;;;15.37;67.64
32456;BME280;18912;43.270;27.942;2022-12-07T01:00:42;98246.47;;;14.73;69.07
32456;BME280;18912;43.270;27.942;2022-12-07T01:03:10;98246.28;;;14.86;69.08
32456;BME280;18912;43.270;27.942;2022-12-07T01:05:36;98255.75;;;14.95;68.66
32456;BME280;18912;43.270;27.942;2022-12-07T01:08:02;98245.06;;;14.82;69.39
32456;BME280;18912;43.270;27.942;2022-12-07T01:10:28;98240.22;;;15.26;67.86
32456;BME280;18912;43.270;27.942;2022-12-07T01:12:56;98239.03;;;15.22;67.29
32456;BME280;18912;43.270;27.942;2022-12-07T01:15:22;98229.31;;;15.67;65.85
32456;BME280;18912;43.270;27.942;2022-12-07T01:17:47;98235.47;;;15.10;67.24
32456;BME280;18912;43.270;27.942;2022-12-07T01:20:13;98233.25;;;14.88;68.58
32456;BME280;18912;43.270;27.942;2022-12-07T01:22:40;98217.84;;;15.24;66.95
32456;BME280;18912;43.270;27.942;2022-12-07T01:25:07;98220.63;;;14.94;67.99
32456;BME280;18912;43.270;27.942;2022-12-07T01:27:33;98218.13;;;14.92;68.01
32456;BME280;18912;43.270;27.942;2022-12-07T01:29:59;98218.19;;;15.27;66.49
32456;BME280;18912;43.270;27.942;2022-12-07T01:32:25;98213.31;;;15.06;66.98
32456;BME280;18912;43.270;27.942;2022-12-07T01:34:50;98216.84;;;15.07;66.79
32456;BME280;18912;43.270;27.942;2022-12-07T01:37:16;98209.09;;;15.33;65.73
32456;BME280;18912;43.270;27.942;2022-12-07T01:39:41;98205.34;;;14.93;67.34
32456;BME280;18912;43.270;27.942;2022-12-07T01:42:11;98200.50;;;15.48;65.72
32456;BME280;18912;43.270;27.942;2022-12-07T01:47:39;98190.91;;;15.45;65.60
32456;BME280;18912;43.270;27.942;2022-12-07T01:50:05;98200.13;;;14.91;67.34
32456;BME280;18912;43.270;27.942;2022-12-07T01:52:33;98194.69;;;14.91;67.42
32456;BME280;18912;43.270;27.942;2022-12-07T01:55:08;98190.75;;;15.29;66.57
32456;BME280;18912;43.270;27.942;2022-12-07T01:57:37;98184.78;;;15.09;66.66
32456;BME280;18912;43.270;27.942;2022-12-07T02:00:06;98188.69;;;15.01;68.29
32456;BME280;18912;43.270;27.942;2022-12-07T02:03:00;98191.88;;;14.98;67.25
32456;BME280;18912;43.270;27.942;2022-12-07T02:05:24;98189.91;;;15.28;67.23
32456;BME280;18912;43.270;27.942;2022-12-07T02:07:51;98192.38;;;15.30;66.96
32456;BME280;18912;43.270;27.942;2022-12-07T02:10:27;98190.72;;;15.06;67.66
32456;BME280;18912;43.270;27.942;2022-12-07T02:12:58;98186.94;;;15.18;67.18
32456;BME280;18912;43.270;27.942;2022-12-07T02:15:32;98186.34;;;15.16;67.36
32456;BME280;18912;43.270;27.942;2022-12-07T02:20:30;98185.25;;;15.06;66.96
32456;BME280;18912;43.270;27.942;2022-12-07T02:29:23;98192.88;;;15.27;66.37
32456;BME280;18912;43.270;27.942;2022-12-07T02:42:45;98187.88;;;15.24;65.81
32456;BME280;18912;43.270;27.942;2022-12-07T02:45:15;98185.34;;;14.99;65.66
32456;BME280;18912;43.270;27.942;2022-12-07T02:47:43;98179.81;;;15.06;65.93
32456;BME280;18912;43.270;27.942;2022-12-07T02:50:10;98184.94;;;15.14;65.08
32456;BME280;18912;43.270;27.942;2022-12-07T02:52:36;98192.28;;;15.36;64.67
32456;BME280;18912;43.270;27.942;2022-12-07T02:55:01;98187.34;;;15.45;64.13
32456;BME280;18912;43.270;27.942;2022-12-07T02:57:50;98192.56;;;15.46;63.90
32456;BME280;18912;43.270;27.942;2022-12-07T03:00:20;98193.75;;;15.50;63.59
32456;BME280;18912;43.270;27.942;2022-12-07T03:02:59;98187.69;;;15.60;63.54
32456;BME280;18912;43.270;27.942;2022-12-07T03:16:14;98180.47;;;15.65;62.33
32456;BME280;18912;43.270;27.942;2022-12-07T03:18:48;98170.84;;;15.17;63.58
32456;BME280;18912;43.270;27.942;2022-12-07T03:21:17;98178.38;;;15.44;63.27
32456;BME280;18912;43.270;27.942;2022-12-07T03:23:46;98177.34;;;15.04;63.60
32456;BME280;18912;43.270;27.942;2022-12-07T03:26:14;98176.09;;;15.41;63.35
32456;BME280;18912;43.270;27.942;2022-12-07T03:28:45;98172.28;;;15.31;63.56
32456;BME280;18912;43.270;27.942;2022-12-07T03:31:25;98173.13;;;15.43;62.79
32456;BME280;18912;43.270;27.942;2022-12-07T03:34:06;98168.72;;;15.19;63.93
32456;BME280;18912;43.270;27.942;2022-12-07T03:36:58;98167.19;;;15.23;64.00
32456;BME280;18912;43.270;27.942;2022-12-07T03:39:39;98169.16;;;15.04;64.42
32456;BME280;18912;43.270;27.942;2022-12-07T03:42:07;98164.69;;;15.10;64.33
32456;BME280;18912;43.270;27.942;2022-12-07T03:44:35;98170.88;;;15.63;62.85
32456;BME280;18912;43.270;27.942;2022-12-07T03:49:57;98167.53;;;15.38;63.15
32456;BME280;18912;43.270;27.942;2022-12-07T03:52:40;98161.53;;;15.47;62.75
32456;BME280;18912;43.270;27.942;2022-12-07T03:55:40;98163.84;;;15.09;64.32
32456;BME280;18912;43.270;27.942;2022-12-07T03:58:11;98166.31;;;15.11;63.98
32456;BME280;18912;43.270;27.942;2022-12-07T04:00:37;98168.09;;;15.05;63.77
32456;BME280;18912;43.270;27.942;2022-12-07T04:03:03;98169.22;;;14.86;64.66
32456;BME280;18912;43.270;27.942;2022-12-07T04:05:29;98171.34;;;14.84;64.90
32456;BME280;18912;43.270;27.942;2022-12-07T04:07:54;98161.81;;;15.05;64.34
32456;BME280;18912;43.270;27.942;2022-12-07T04:10:20;98165.34;;;14.93;64.31
32456;BME280;18912;43.270;27.942;2022-12-07T04:12:46;98157.50;;;14.85;64.78
32456;BME280;18912;43.270;27.942;2022-12-07T04:15:11;98164.56;;;15.16;63.67
32456;BME280;18912;43.270;27.942;2022-12-07T04:17:37;98162.66;;;15.05;64.20
32456;BME280;18912;43.270;27.942;2022-12-07T04:20:04;98152.84;;;15.16;64.05
32456;BME280;18912;43.270;27.942;2022-12-07T04:22:30;98161.63;;;15.52;62.55
32456;BME280;18912;43.270;27.942;2022-12-07T04:24:55;98159.47;;;15.20;62.46
32456;BME280;18912;43.270;27.942;2022-12-07T04:27:21;98144.44;;;15.63;61.89
32456;BME280;18912;43.270;27.942;2022-12-07T04:29:46;98146.94;;;15.19;62.69
32456;BME280;18912;43.270;27.942;2022-12-07T04:32:12;98150.44;;;14.96;63.68
32456;BME280;18912;43.270;27.942;2022-12-07T04:34:37;98140.72;;;14.88;64.11
32456;BME280;18912;43.270;27.942;2022-12-07T04:37:03;98139.91;;;14.88;63.30
32456;BME280;18912;43.270;27.942;2022-12-07T04:39:30;98147.72;;;14.96;63.08
32456;BME280;18912;43.270;27.942;2022-12-07T04:41:56;98148.09;;;14.99;62.61
32456;BME280;18912;43.270;27.942;2022-12-07T04:44:23;98152.97;;;15.21;62.09
32456;BME280;18912;43.270;27.942;2022-12-07T04:46:49;98149.41;;;15.20;61.91
32456;BME280;18912;43.270;27.942;2022-12-07T04:49:15;98151.88;;;14.98;61.87
32456;BME280;18912;43.270;27.942;2022-12-07T04:51:42;98154.38;;;15.00;62.07
32456;BME280;18912;43.270;27.942;2022-12-07T04:54:08;98155.53;;;14.92;62.25
32456;BME280;18912;43.270;27.942;2022-12-07T04:56:34;98163.91;;;14.79;62.56
32456;BME280;18912;43.270;27.942;2022-12-07T04:59:00;98155.97;;;14.78;62.41
32456;BME280;18912;43.270;27.942;2022-12-07T05:01:26;98164.56;;;14.63;63.21
32456;BME280;18912;43.270;27.942;2022-12-07T05:03:52;98173.28;;;14.54;63.76
32456;BME280;18912;43.270;27.942;2022-12-07T05:06:18;98160.22;;;14.44;64.24
32456;BME280;18912;43.270;27.942;2022-12-07T05:08:43;98146.44;;;14.57;64.10
32456;BME280;18912;43.270;27.942;2022-12-07T05:11:10;98158.91;;;14.35;64.59
32456;BME280;18912;43.270;27.942;2022-12-07T05:13:56;98156.66;;;14.32;64.65
32456;BME280;18912;43.270;27.942;2022-12-07T05:16:22;98150.34;;;14.14;65.08
32456;BME280;18912;43.270;27.942;2022-12-07T05:18:47;98147.06;;;14.30;65.11
32456;BME280;18912;43.270;27.942;2022-12-07T05:21:13;98161.75;;;14.70;63.98
32456;BME280;18912;43.270;27.942;2022-12-07T05:23:38;98164.88;;;14.55;63.99
32456;BME280;18912;43.270;27.942;2022-12-07T05:26:04;98169.31;;;14.68;63.71
32456;BME280;18912;43.270;27.942;2022-12-07T05:28:29;98167.66;;;15.08;62.51
32456;BME280;18912;43.270;27.942;2022-12-07T05:30:55;98167.19;;;15.23;61.78
32456;BME280;18912;43.270;27.942;2022-12-07T05:33:20;98165.75;;;15.20;61.50
32456;BME280;18912;43.270;27.942;2022-12-07T05:35:46;98169.06;;;15.34;61.44
32456;BME280;18912;43.270;27.942;2022-12-07T05:38:11;98168.88;;;15.47;61.46
32456;BME280;18912;43.270;27.942;2022-12-07T05:40:37;98165.44;;;15.63;61.01
32456;BME280;18912;43.270;27.942;2022-12-07T05:43:02;98164.84;;;15.61;61.07
32456;BME280;18912;43.270;27.942;2022-12-07T05:45:28;98163.53;;;15.75;60.64
32456;BME280;18912;43.270;27.942;2022-12-07T05:47:53;98166.84;;;15.77;60.52
32456;BME280;18912;43.270;27.942;2022-12-07T05:50:19;98153.50;;;16.04;60.27
32456;BME280;18912;43.270;27.942;2022-12-07T05:52:44;98157.91;;;16.05;59.35
32456;BME280;18912;43.270;27.942;2022-12-07T05:55:10;98164.06;;;16.51;58.81
32456;BME280;18912;43.270;27.942;2022-12-07T05:57:35;98159.91;;;16.77;57.53
32456;BME280;18912;43.270;27.942;2022-12-07T06:00:01;98159.69;;;17.12;56.44
32456;BME280;18912;43.270;27.942;2022-12-07T06:02:26;98159.94;;;17.27;55.56
32456;BME280;18912;43.270;27.942;2022-12-07T06:04:52;98154.06;;;17.68;54.55
32456;BME280;18912;43.270;27.942;2022-12-07T06:07:18;98156.88;;;17.73;53.29
32456;BME280;18912;43.270;27.942;2022-12-07T06:09:43;98161.59;;;17.99;52.70
32456;BME280;18912;43.270;27.942;2022-12-07T06:12:10;98168.16;;;18.20;52.03
32456;BME280;18912;43.270;27.942;2022-12-07T06:14:54;98168.59;;;18.77;50.86
32456;BME280;18912;43.270;27.942;2022-12-07T06:17:20;98163.25;;;19.50;49.13
32456;BME280;18912;43.270;27.942;2022-12-07T06:19:45;98165.22;;;20.01;47.52
32456;BME280;18912;43.270;27.942;2022-12-07T06:22:11;98171.56;;;20.59;46.37
32456;BME280;18912;43.270;27.942;2022-12-07T06:24:38;98172.78;;;21.03;45.13
32456;BME280;18912;43.270;27.942;2022-12-07T06:27:04;98165.63;;;21.07;44.68
32456;BME280;18912;43.270;27.942;2022-12-07T06:29:29;98164.81;;;21.11;43.88
32456;BME280;18912;43.270;27.942;2022-12-07T06:31:55;98165.41;;;21.38;43.49
32456;BME280;18912;43.270;27.942;2022-12-07T06:34:22;98162.91;;;21.47;43.35
32456;BME280;18912;43.270;27.942;2022-12-07T06:36:48;98177.91;;;22.25;41.92
32456;BME280;18912;43.270;27.942;2022-12-07T06:39:18;98178.84;;;22.74;41.09
32456;BME280;18912;43.270;27.942;2022-12-07T06:41:44;98175.69;;;22.32;41.44
32456;BME280;18912;43.270;27.942;2022-12-07T06:44:09;98175.03;;;22.65;41.11
32456;BME280;18912;43.270;27.942;2022-12-07T06:46:35;98177.34;;;22.97;40.02
32456;BME280;18912;43.270;27.942;2022-12-07T06:49:01;98168.38;;;23.54;38.95
32456;BME280;18912;43.270;27.942;2022-12-07T06:51:26;98169.38;;;22.26;40.41
32456;BME280;18912;43.270;27.942;2022-12-07T06:53:52;98179.88;;;22.19;41.10
32456;BME280;18912;43.270;27.942;2022-12-07T06:56:18;98167.59;;;21.42;42.27
32456;BME280;18912;43.270;27.942;2022-12-07T06:58:43;98177.47;;;21.07;43.16
32456;BME280;18912;43.270;27.942;2022-12-07T07:01:14;98177.22;;;21.59;42.24
32456;BME280;18912;43.270;27.942;2022-12-07T07:03:40;98168.94;;;21.24;42.81
32456;BME280;18912;43.270;27.942;2022-12-07T07:06:06;98170.63;;;21.35;42.18
32456;BME280;18912;43.270;27.942;2022-12-07T07:08:32;98168.91;;;20.99;43.00
32456;BME280;18912;43.270;27.942;2022-12-07T07:10:58;98164.09;;;19.97;44.82
32456;BME280;18912;43.270;27.942;2022-12-07T07:13:23;98164.88;;;19.88;45.18
32456;BME280;18912;43.270;27.942;2022-12-07T07:15:49;98173.47;;;20.58;44.04
32456;BME280;18912;43.270;27.942;2022-12-07T07:18:14;98177.75;;;21.11;43.37
32456;BME280;18912;43.270;27.942;2022-12-07T07:20:40;98176.31;;;20.98;43.04
32456;BME280;18912;43.270;27.942;2022-12-07T07:23:06;98178.88;;;21.35;42.63
32456;BME280;18912;43.270;27.942;2022-12-07T07:25:32;98178.03;;;21.85;41.74
32456;BME280;18912;43.270;27.942;2022-12-07T07:27:58;98187.31;;;22.19;40.97
32456;BME280;18912;43.270;27.942;2022-12-07T07:30:24;98177.22;;;21.29;42.38
32456;BME280;18912;43.270;27.942;2022-12-07T07:32:49;98178.31;;;21.23;42.52
32456;BME280;18912;43.270;27.942;2022-12-07T07:35:15;98177.72;;;21.71;42.35
32456;BME280;18912;43.270;27.942;2022-12-07T07:37:41;98179.66;;;21.91;41.42
32456;BME280;18912;43.270;27.942;2022-12-07T07:40:07;98177.13;;;22.19;41.07
32456;BME280;18912;43.270;27.942;2022-12-07T07:42:33;98180.81;;;22.69;40.44
32456;BME280;18912;43.270;27.942;2022-12-07T07:44:59;98182.34;;;22.90;40.31
32456;BME280;18912;43.270;27.942;2022-12-07T07:47:24;98193.94;;;22.87;39.71
32456;BME280;18912;43.270;27.942;2022-12-07T07:49:49;98178.84;;;22.74;39.93
32456;BME280;18912;43.270;27.942;2022-12-07T07:52:15;98179.78;;;22.45;40.52
32456;BME280;18912;43.270;27.942;2022-12-07T07:54:40;98183.88;;;23.11;38.65
32456;BME280;18912;43.270;27.942;2022-12-07T07:57:06;98186.44;;;23.41;38.66
32456;BME280;18912;43.270;27.942;2022-12-07T07:59:31;98184.72;;;22.48;39.55
32456;BME280;18912;43.270;27.942;2022-12-07T08:01:57;98185.63;;;22.92;39.79
32456;BME280;18912;43.270;27.942;2022-12-07T08:04:23;98201.59;;;22.95;39.19
32456;BME280;18912;43.270;27.942;2022-12-07T08:06:48;98184.34;;;21.95;40.16
32456;BME280;18912;43.270;27.942;2022-12-07T08:09:14;98190.94;;;21.94;40.13
32456;BME280;18912;43.270;27.942;2022-12-07T08:11:39;98194.13;;;22.37;39.75
32456;BME280;18912;43.270;27.942;2022-12-07T08:14:04;98186.34;;;23.51;38.36
32456;BME280;18912;43.270;27.942;2022-12-07T08:16:30;98188.59;;;23.78;37.12
32456;BME280;18912;43.270;27.942;2022-12-07T08:18:56;98194.38;;;22.50;39.13
32456;BME280;18912;43.270;27.942;2022-12-07T08:21:21;98188.94;;;22.30;39.18
32456;BME280;18912;43.270;27.942;2022-12-07T08:23:47;98188.16;;;22.83;38.65
32456;BME280;18912;43.270;27.942;2022-12-07T08:26:14;98177.63;;;23.39;38.52
32456;BME280;18912;43.270;27.942;2022-12-07T08:28:40;98190.41;;;23.25;38.14
32456;BME280;18912;43.270;27.942;2022-12-07T08:31:15;98184.16;;;23.04;38.10
32456;BME280;18912;43.270;27.942;2022-12-07T08:33:41;98174.38;;;23.32;38.17
32456;BME280;18912;43.270;27.942;2022-12-07T08:36:09;98173.63;;;24.13;36.63
32456;BME280;18912;43.270;27.942;2022-12-07T08:38:36;98174.03;;;23.72;37.11
32456;BME280;18912;43.270;27.942;2022-12-07T08:41:02;98170.69;;;23.03;38.47
32456;BME280;18912;43.270;27.942;2022-12-07T08:43:28;98174.53;;;22.48;39.65
32456;BME280;18912;43.270;27.942;2022-12-07T08:48:33;98171.16;;;21.37;41.11
32456;BME280;18912;43.270;27.942;2022-12-07T08:51:01;98175.03;;;21.31;41.97
32456;BME280;18912;43.270;27.942;2022-12-07T08:53:28;98175.50;;;20.93;42.96
32456;BME280;18912;43.270;27.942;2022-12-07T08:55:55;98166.19;;;19.75;44.41
32456;BME280;18912;43.270;27.942;2022-12-07T08:58:21;98164.91;;;19.24;45.39
32456;BME280;18912;43.270;27.942;2022-12-07T09:00:47;98160.41;;;19.08;46.05
32456;BME280;18912;43.270;27.942;2022-12-07T09:03:13;98160.69;;;19.75;45.59
32456;BME280;18912;43.270;27.942;2022-12-07T09:05:38;98167.97;;;20.01;45.31
32456;BME280;18912;43.270;27.942;2022-12-07T09:08:04;98162.13;;;19.14;46.28
32456;BME280;18912;43.270;27.942;2022-12-07T09:10:30;98152.41;;;19.70;45.29
32456;BME280;18912;43.270;27.942;2022-12-07T09:12:55;98155.97;;;20.17;44.47
32456;BME280;18912;43.270;27.942;2022-12-07T09:15:21;98153.91;;;20.44;44.16
32456;BME280;18912;43.270;27.942;2022-12-07T09:17:46;98155.03;;;20.48;43.76
32456;BME280;18912;43.270;27.942;2022-12-07T09:20:12;98151.22;;;19.98;44.17
32456;BME280;18912;43.270;27.942;2022-12-07T09:22:37;98146.34;;;19.00;45.64
32456;BME280;18912;43.270;27.942;2022-12-07T09:25:04;98139.72;;;19.59;45.06
32456;BME280;18912;43.270;27.942;2022-12-07T09:27:31;98133.59;;;19.42;45.89
32456;BME280;18912;43.270;27.942;2022-12-07T09:29:56;98136.59;;;19.09;46.31
32456;BME280;18912;43.270;27.942;2022-12-07T09:32:22;98136.16;;;20.05;45.21
32456;BME280;18912;43.270;27.942;2022-12-07T09:34:48;98129.56;;;20.73;44.22
32456;BME280;18912;43.270;27.942;2022-12-07T09:37:13;98128.19;;;19.52;45.78
32456;BME280;18912;43.270;27.942;2022-12-07T09:39:40;98124.47;;;20.25;44.73
32456;BME280;18912;43.270;27.942;2022-12-07T09:42:06;98122.78;;;19.62;45.55
32456;BME280;18912;43.270;27.942;2022-12-07T09:44:34;98119.38;;;20.59;44.55
32456;BME280;18912;43.270;27.942;2022-12-07T09:47:00;98115.63;;;21.05;44.07
32456;BME280;18912;43.270;27.942;2022-12-07T09:49:29;98123.56;;;20.96;43.46
32456;BME280;18912;43.270;27.942;2022-12-07T09:54:29;98118.84;;;20.67;43.79
32456;BME280;18912;43.270;27.942;2022-12-07T09:56:55;98118.25;;;20.50;43.57
32456;BME280;18912;43.270;27.942;2022-12-07T09:59:21;98116.06;;;20.57;44.41
32456;BME280;18912;43.270;27.942;2022-12-07T10:01:49;98113.59;;;20.55;44.34
32456;BME280;18912;43.270;27.942;2022-12-07T10:04:17;98116.38;;;20.70;44.15
32456;BME280;18912;43.270;27.942;2022-12-07T10:06:43;98111.91;;;20.44;45.12
32456;BME280;18912;43.270;27.942;2022-12-07T10:09:13;98107.13;;;20.14;44.96
32456;BME280;18912;43.270;27.942;2022-12-07T10:11:57;98104.38;;;19.63;45.39
32456;BME280;18912;43.270;27.942;2022-12-07T10:14:23;98103.81;;;20.07;45.55
32456;BME280;18912;43.270;27.942;2022-12-07T10:16:49;98097.84;;;19.69;45.60
32456;BME280;18912;43.270;27.942;2022-12-07T10:22:00;98094.69;;;19.97;45.79
32456;BME280;18912;43.270;27.942;2022-12-07T10:24:26;98094.75;;;21.04;43.48
32456;BME280;18912;43.270;27.942;2022-12-07T10:26:52;98086.41;;;20.43;44.47
32456;BME280;18912;43.270;27.942;2022-12-07T10:29:34;98086.88;;;20.25;44.73
32456;BME280;18912;43.270;27.942;2022-12-07T10:34:40;98084.13;;;20.25;44.69
32456;BME280;18912;43.270;27.942;2022-12-07T10:39:52;98077.06;;;20.55;44.50
32456;BME280;18912;43.270;27.942;2022-12-07T10:42:26;98070.50;;;20.71;44.01
32456;BME280;18912;43.270;27.942;2022-12-07T10:47:55;98071.66;;;21.35;42.77
32456;BME280;18912;43.270;27.942;2022-12-07T10:50:47;98071.03;;;20.73;43.89
32456;BME280;18912;43.270;27.942;2022-12-07T10:53:33;98070.53;;;21.11;42.57
32456;BME280;18912;43.270;27.942;2022-12-07T10:56:33;98065.78;;;19.74;45.40
32456;BME280;18912;43.270;27.942;2022-12-07T11:05:23;98067.44;;;18.97;49.58
32456;BME280;18912;43.270;27.942;2022-12-07T11:10:22;98056.06;;;19.15;48.81
32456;BME280;18912;43.270;27.942;2022-12-07T11:15:31;98053.75;;;19.80;47.48
32456;BME280;18912;43.270;27.942;2022-12-07T11:18:18;98043.22;;;19.57;47.77
32456;BME280;18912;43.270;27.942;2022-12-07T11:26:27;98033.94;;;19.68;47.37
32456;BME280;18912;43.270;27.942;2022-12-07T11:35:19;98027.25;;;19.49;48.11
32456;BME280;18912;43.270;27.942;2022-12-07T11:37:49;98024.25;;;20.17;47.15
32456;BME280;18912;43.270;27.942;2022-12-07T11:40:46;98022.84;;;20.05;47.01
32456;BME280;18912;43.270;27.942;2022-12-07T11:43:20;98020.78;;;20.47;46.27
32456;BME280;18912;43.270;27.942;2022-12-07T11:46:07;98021.56;;;19.61;46.99
32456;BME280;18912;43.270;27.942;2022-12-07T11:48:35;98018.81;;;20.22;46.44
32456;BME280;18912;43.270;27.942;2022-12-07T11:51:07;98019.91;;;20.31;45.90
32456;BME280;18912;43.270;27.942;2022-12-07T11:53:38;98020.88;;;19.90;46.37
32456;BME280;18912;43.270;27.942;2022-12-07T11:56:12;98024.06;;;19.62;47.01
32456;BME280;18912;43.270;27.942;2022-12-07T12:03:41;98013.47;;;19.91;47.95
32456;BME280;18912;43.270;27.942;2022-12-07T12:06:07;98004.38;;;19.85;47.21
32456;BME280;18912;43.270;27.942;2022-12-07T12:08:42;98003.22;;;19.66;47.42
32456;BME280;18912;43.270;27.942;2022-12-07T12:22:39;97990.00;;;18.70;50.44
32456;BME280;18912;43.270;27.942;2022-12-07T12:25:19;97997.00;;;18.29;51.11
32456;BME280;18912;43.270;27.942;2022-12-07T12:27:47;97987.34;;;18.80;50.29
32456;BME280;18912;43.270;27.942;2022-12-07T12:30:36;97965.31;;;18.64;49.97
32456;BME280;18912;43.270;27.942;2022-12-07T12:33:14;97990.91;;;19.22;49.07
32456;BME280;18912;43.270;27.942;2022-12-07T12:35:41;97984.56;;;18.16;51.03
32456;BME280;18912;43.270;27.942;2022-12-07T12:38:33;97980.06;;;18.58;50.96
32456;BME280;18912;43.270;27.942;2022-12-07T12:41:00;97994.03;;;18.94;49.70
32456;BME280;18912;43.270;27.942;2022-12-07T12:43:53;97984.25;;;19.08;49.94
32456;BME280;18912;43.270;27.942;2022-12-07T12:51:54;97977.03;;;18.92;49.83
32456;BME280;18912;43.270;27.942;2022-12-07T12:54:29;97973.97;;;18.51;50.25
32456;BME280;18912;43.270;27.942;2022-12-07T12:57:27;97978.97;;;18.59;51.33
32456;BME280;18912;43.270;27.942;2022-12-07T13:02:28;97986.72;;;19.09;50.24
32456;BME280;18912;43.270;27.942;2022-12-07T13:04:55;97985.75;;;18.89;50.21
32456;BME280;18912;43.270;27.942;2022-12-07T13:15:43;97977.63;;;18.35;50.50
32456;BME280;18912;43.270;27.942;2022-12-07T13:26:36;97969.13;;;18.32;51.34
32456;BME280;18912;43.270;27.942;2022-12-07T13:29:18;97959.88;;;18.38;51.50
32456;BME280;18912;43.270;27.942;2022-12-07T13:31:55;97969.41;;;18.35;51.61
32456;BME280;18912;43.270;27.942;2022-12-07T13:37:01;97972.56;;;18.44;51.31
32456;BME280;18912;43.270;27.942;2022-12-07T13:39:34;97969.94;;;18.32;51.36
32456;BME280;18912;43.270;27.942;2022-12-07T13:42:11;97965.41;;;18.16;51.65
32456;BME280;18912;43.270;27.942;2022-12-07T13:44:40;97962.94;;;18.15;51.16
32456;BME280;18912;43.270;27.942;2022-12-07T13:47:13;97961.88;;;18.42;50.82
32456;BME280;18912;43.270;27.942;2022-12-07T13:49:55;97955.88;;;18.19;51.56
32456;BME280;18912;43.270;27.942;2022-12-07T13:54:59;97971.34;;;18.35;53.08
32456;BME280;18912;43.270;27.942;2022-12-07T13:57:27;97976.03;;;18.13;53.89
32456;BME280;18912;43.270;27.942;2022-12-07T13:59:53;97978.84;;;18.44;53.57
32456;BME280;18912;43.270;27.942;2022-12-07T14:02:31;97980.88;;;18.59;53.17
32456;BME280;18912;43.270;27.942;2022-12-07T14:05:14;97981.44;;;18.61;52.90
32456;BME280;18912;43.270;27.942;2022-12-07T14:10:34;97981.41;;;18.29;53.87
32456;BME280;18912;43.270;27.942;2022-12-07T14:13:01;97976.41;;;18.48;53.69
32456;BME280;18912;43.270;27.942;2022-12-07T14:15:30;97975.59;;;18.47;53.80
32456;BME280;18912;43.270;27.942;2022-12-07T14:17:58;97983.66;;;18.37;53.84
32456;BME280;18912;43.270;27.942;2022-12-07T14:20:40;97987.06;;;18.18;54.91
32456;BME280;18912;43.270;27.942;2022-12-07T14:23:23;97983.06;;;18.30;54.29
32456;BME280;18912;43.270;27.942;2022-12-07T14:25:51;97974.41;;;17.85;55.42
32456;BME280;18912;43.270;27.942;2022-12-07T14:28:34;97978.91;;;17.74;55.84
32456;BME280;18912;43.270;27.942;2022-12-07T14:31:01;97977.44;;;18.15;54.36
32456;BME280;18912;43.270;27.942;2022-12-07T14:33:27;97976.31;;;18.11;54.42
32456;BME280;18912;43.270;27.942;2022-12-07T14:35:53;97973.28;;;18.08;54.24
32456;BME280;18912;43.270;27.942;2022-12-07T14:38:25;97973.38;;;18.18;54.16
32456;BME280;18912;43.270;27.942;2022-12-07T14:40:52;97973.16;;;18.24;53.81
32456;BME280;18912;43.270;27.942;2022-12-07T14:43:19;97976.50;;;18.31;53.69
32456;BME280;18912;43.270;27.942;2022-12-07T14:45:45;97971.59;;;18.07;54.22
32456;BME280;18912;43.270;27.942;2022-12-07T14:48:14;97976.88;;;18.13;54.08
32456;BME280;18912;43.270;27.942;2022-12-07T14:50:52;97966.13;;;18.07;54.44
32456;BME280;18912;43.270;27.942;2022-12-07T14:53:22;97969.00;;;18.22;53.99
32456;BME280;18912;43.270;27.942;2022-12-07T14:55:52;97972.22;;;18.40;53.44
32456;BME280;18912;43.270;27.942;2022-12-07T14:58:17;97971.72;;;18.17;53.30
32456;BME280;18912;43.270;27.942;2022-12-07T15:00:44;97970.22;;;18.31;53.15
32456;BME280;18912;43.270;27.942;2022-12-07T15:03:10;97973.88;;;18.15;53.84
32456;BME280;18912;43.270;27.942;2022-12-07T15:05:36;97979.09;;;18.16;53.21
32456;BME280;18912;43.270;27.942;2022-12-07T15:08:02;97980.22;;;18.20;53.13